Time;durP1;ratioP1;P1;durP2;ratioP2;P2;SDS_P1;SDS_P2;PMS_P1;PMS_P2;Temp;Humidity;BMP_temperature;BMP_pressure;BME280_temperature;BME280_humidity;BME280_pressure;Samples;Min_cycle;Max_cycle;Signal;HPM_P1;HPM_P2
2022/10/05 00:01:34;;;;;;;11.15;7.63;;;;;;;14.07;100.00;101696.41;5344926;27;20035;-86
2022/10/05 00:04:21;;;;;;;9.35;8.07;;;;;;;14.05;100.00;101687.66;5354801;27;20077;-86
2022/10/05 00:07:12;;;;;;;11.90;7.97;;;;;;;14.10;100.00;101696.13;5355775;27;20035;-86
2022/10/05 00:09:48;;;;;;;10.27;7.75;;;;;;;14.08;100.00;101702.66;5355743;27;20050;-86
2022/10/05 00:12:21;;;;;;;11.05;8.18;;;;;;;14.08;100.00;101702.66;5354389;27;20030;-86
2022/10/05 00:14:58;;;;;;;11.52;8.30;;;;;;;14.04;100.00;101699.38;5357298;27;20667;-87
2022/10/05 00:17:29;;;;;;;11.00;8.75;;;;;;;14.03;100.00;101694.19;5352427;27;20024;-86
2022/10/05 00:20:21;;;;;;;15.45;8.65;;;;;;;14.04;100.00;101690.50;5355536;27;20074;-86
2022/10/05 00:22:59;;;;;;;11.85;8.50;;;;;;;14.02;100.00;101687.94;5352512;27;20055;-87
2022/10/05 00:25:30;;;;;;;12.10;9.52;;;;;;;14.01;100.00;101680.91;5348376;27;20432;-87
2022/10/05 00:28:14;;;;;;;13.00;7.97;;;;;;;14.02;100.00;101685.25;5332399;27;20108;-88
2022/10/05 00:30:45;;;;;;;14.25;8.88;;;;;;;13.98;100.00;101683.88;5332541;27;20489;-87
2022/10/05 00:33:17;;;;;;;14.20;8.70;;;;;;;13.98;100.00;101691.91;5350551;27;20028;-87
2022/10/05 00:35:48;;;;;;;12.50;8.38;;;;;;;13.97;100.00;101676.81;5350898;27;20012;-88
2022/10/05 00:38:20;;;;;;;14.05;8.60;;;;;;;13.92;100.00;101679.94;5330097;27;20034;-86
2022/10/05 00:40:55;;;;;;;10.02;8.93;;;;;;;13.94;100.00;101682.47;5345377;27;20076;-86
2022/10/05 00:43:43;;;;;;;11.70;9.25;;;;;;;13.93;100.00;101676.25;5348533;27;20102;-86
2022/10/05 00:46:21;;;;;;;14.57;9.02;;;;;;;13.91;100.00;101678.22;5327364;27;20394;-85
2022/10/05 00:49:31;;;;;;;11.43;8.93;;;;;;;13.94;100.00;101687.84;5340985;27;20173;-85
2022/10/05 00:52:25;;;;;;;12.65;9.77;;;;;;;13.90;100.00;101683.75;5336880;27;20032;-86
2022/10/05 00:55:32;;;;;;;12.55;9.20;;;;;;;13.88;100.00;101673.16;5319563;27;20443;-87
2022/10/05 00:58:22;;;;;;;14.02;8.93;;;;;;;13.84;100.00;101669.06;5339040;27;20028;-82
2022/10/05 01:01:02;;;;;;;12.95;8.85;;;;;;;13.87;100.00;101681.38;5308924;27;20035;-81
2022/10/05 01:03:59;;;;;;;11.20;9.52;;;;;;;13.87;100.00;101679.53;5348304;27;20024;-85
2022/10/05 01:06:57;;;;;;;15.18;9.10;;;;;;;13.83;100.00;101664.69;5348120;27;20028;-84
2022/10/05 01:09:31;;;;;;;12.38;9.00;;;;;;;13.82;100.00;101673.75;5360127;27;20044;-84
2022/10/05 01:12:32;;;;;;;15.43;8.95;;;;;;;13.79;100.00;101657.94;5353955;27;20028;-84
2022/10/05 01:15:23;;;;;;;11.80;9.55;;;;;;;13.82;100.00;101657.66;5353354;27;20043;-86
2022/10/05 01:18:08;;;;;;;12.77;8.88;;;;;;;13.82;100.00;101657.66;5359427;27;20400;-86
2022/10/05 01:21:11;;;;;;;13.07;9.02;;;;;;;13.81;100.00;101655.94;5331550;27;20118;-85
2022/10/05 01:23:52;;;;;;;11.40;9.07;;;;;;;13.80;100.00;101659.63;5341058;27;20879;-86
2022/10/05 01:26:29;;;;;;;13.82;8.40;;;;;;;13.80;100.00;101656.97;5321684;27;20032;-85
2022/10/05 01:29:15;;;;;;;13.05;9.50;;;;;;;13.77;100.00;101646.50;5341640;27;20101;-86
2022/10/05 01:32:19;;;;;;;14.73;9.48;;;;;;;13.76;100.00;101647.50;5339959;27;20026;-84
2022/10/05 01:35:05;;;;;;;15.98;9.25;;;;;;;13.71;100.00;101639.03;5339542;27;20039;-85
2022/10/05 01:38:09;;;;;;;11.80;9.50;;;;;;;13.75;100.00;101648.50;5325087;27;20023;-85
2022/10/05 01:41:07;;;;;;;13.02;9.48;;;;;;;13.67;100.00;101634.94;5339262;27;20020;-86
2022/10/05 01:44:04;;;;;;;16.50;9.32;;;;;;;13.72;100.00;101638.06;5339255;27;20250;-85
2022/10/05 01:46:51;;;;;;;11.37;9.10;;;;;;;13.73;100.00;101637.06;5340774;27;20473;-86
2022/10/05 01:49:46;;;;;;;12.50;9.50;;;;;;;13.78;100.00;101637.50;5339261;27;20443;-85
2022/10/05 01:52:35;;;;;;;14.68;8.88;;;;;;;13.76;100.00;101632.28;5342177;27;20023;-86
2022/10/05 01:55:34;;;;;;;10.27;8.98;;;;;;;13.74;100.00;101628.03;5324593;27;20173;-85
2022/10/05 01:58:34;;;;;;;10.23;9.20;;;;;;;13.76;100.00;101632.28;5332312;27;20043;-86
2022/10/05 02:01:25;;;;;;;11.48;9.18;;;;;;;13.76;100.00;101618.88;5356071;27;20131;-86
2022/10/05 02:04:10;;;;;;;10.57;8.63;;;;;;;13.73;100.00;101611.09;5348574;27;20039;-85
2022/10/05 02:06:46;;;;;;;11.40;9.68;;;;;;;13.76;100.00;101612.63;5338046;27;20038;-88
2022/10/05 02:09:24;;;;;;;11.75;8.32;;;;;;;13.76;100.00;101610.81;5344695;27;20052;-87
2022/10/05 02:12:10;;;;;;;10.30;9.07;;;;;;;13.78;100.00;101608.84;5346630;27;20088;-86
2022/10/05 02:14:45;;;;;;;12.90;8.88;;;;;;;13.78;100.00;101598.09;5354000;27;20057;-87
2022/10/05 02:17:23;;;;;;;9.73;8.20;;;;;;;13.80;100.00;101595.28;5351813;27;20022;-86
2022/10/05 02:20:00;;;;;;;14.30;9.60;;;;;;;13.76;100.00;101596.53;5324159;27;20032;-85
2022/10/05 02:22:48;;;;;;;11.60;8.90;;;;;;;13.78;100.00;101590.06;5328128;27;20019;-87
2022/10/05 02:25:26;;;;;;;12.13;8.88;;;;;;;13.75;100.00;101584.97;5328186;27;20034;-86
2022/10/05 02:28:12;;;;;;;11.60;9.52;;;;;;;13.79;100.00;101591.72;5347527;27;20031;-87
2022/10/05 02:30:53;;;;;;;11.80;8.73;;;;;;;13.86;100.00;101588.50;5321870;27;20040;-86
2022/10/05 02:33:29;;;;;;;9.88;8.43;;;;;;;13.87;100.00;101587.50;5324318;27;20031;-85
2022/10/05 02:36:12;;;;;;;10.15;8.60;;;;;;;13.84;100.00;101566.34;5323836;27;20032;-86
2022/10/05 02:39:36;;;;;;;9.45;8.45;;;;;;;13.88;100.00;101576.59;5339933;27;20016;-86
2022/10/05 02:42:20;;;;;;;9.90;8.35;;;;;;;13.81;100.00;101559.41;5220642;28;20145;-87
2022/10/05 02:45:02;;;;;;;10.15;8.38;;;;;;;13.86;100.00;101569.72;5343579;27;20050;-87
2022/10/05 02:47:42;;;;;;;10.82;7.93;;;;;;;13.86;100.00;101562.50;5345160;27;20106;-86
2022/10/05 02:50:36;;;;;;;9.43;7.57;;;;;;;13.78;100.00;101549.84;5345593;27;20428;-86
2022/10/05 02:53:36;;;;;;;9.35;8.27;;;;;;;13.81;100.00;101567.47;5321282;27;20023;-86
2022/10/05 02:56:35;;;;;;;9.35;8.40;;;;;;;13.72;100.00;101550.41;5342252;27;20072;-84
2022/10/05 02:59:18;;;;;;;9.00;7.95;;;;;;;13.76;100.00;101554.50;5322899;27;20521;-86
2022/10/05 03:02:21;;;;;;;15.43;8.55;;;;;;;13.75;100.00;101560.84;5336693;27;20103;-85
2022/10/05 03:05:15;;;;;;;10.82;8.45;;;;;;;13.68;100.00;101545.50;5339008;27;20119;-85
2022/10/05 03:07:56;;;;;;;12.68;8.55;;;;;;;13.64;100.00;101547.63;5341361;27;20540;-85
2022/10/05 03:10:57;;;;;;;13.57;8.10;;;;;;;13.62;100.00;101549.59;5336854;27;20047;-86
2022/10/05 03:13:40;;;;;;;9.95;8.93;;;;;;;13.58;100.00;101546.34;5336776;27;20493;-87
2022/10/05 03:16:39;;;;;;;11.82;9.27;;;;;;;13.49;100.00;101524.97;5342384;27;20084;-86
2022/10/05 03:19:24;;;;;;;11.70;8.38;;;;;;;13.58;100.00;101543.69;5320403;27;20053;-85
2022/10/05 03:22:26;;;;;;;14.95;8.55;;;;;;;13.58;100.00;101538.31;5340318;27;20035;-86
2022/10/05 03:25:16;;;;;;;13.00;9.07;;;;;;;13.55;100.00;101522.56;5342801;27;20117;-86
2022/10/05 03:27:53;;;;;;;16.27;8.23;;;;;;;13.54;100.00;101539.59;5343785;27;20040;-86
2022/10/05 03:30:30;;;;;;;11.30;8.38;;;;;;;13.53;100.00;101545.09;5326479;27;20027;-86
2022/10/05 03:33:15;;;;;;;11.50;8.52;;;;;;;13.54;100.00;101544.97;5344018;27;20032;-86
2022/10/05 03:36:21;;;;;;;10.63;8.52;;;;;;;13.56;100.00;101534.94;5345633;27;20019;-87
2022/10/05 03:39:12;;;;;;;10.38;8.30;;;;;;;13.55;100.00;101535.09;5347098;27;20027;-87
2022/10/05 03:41:50;;;;;;;13.30;8.68;;;;;;;13.56;100.00;101536.78;5351655;27;20036;-87
2022/10/05 03:44:52;;;;;;;11.05;8.88;;;;;;;13.52;100.00;101530.03;5351399;27;20024;-87
2022/10/05 03:47:38;;;;;;;11.32;8.30;;;;;;;13.54;100.00;101531.56;5341633;27;20766;-86
2022/10/05 03:50:23;;;;;;;15.70;9.68;;;;;;;13.53;100.00;101539.75;5324908;27;20036;-87
2022/10/05 03:53:17;;;;;;;10.27;8.75;;;;;;;13.57;100.00;101536.66;5338228;27;20039;-85
2022/10/05 03:55:58;;;;;;;11.43;8.95;;;;;;;13.56;100.00;101539.47;5358815;27;20020;-85
2022/10/05 03:58:49;;;;;;;12.15;8.98;;;;;;;13.47;100.00;101521.59;5366908;27;20036;-86
2022/10/05 04:01:35;;;;;;;12.65;9.10;;;;;;;13.55;100.00;101541.31;5370480;27;20038;-86
2022/10/05 04:04:12;;;;;;;9.90;8.90;;;;;;;13.55;100.00;101545.81;5352475;27;20123;-85
2022/10/05 04:06:49;;;;;;;10.77;9.18;;;;;;;13.51;100.00;101534.53;5346542;27;20028;-86
2022/10/05 04:09:35;;;;;;;13.70;9.73;;;;;;;13.53;100.00;101539.75;5335371;27;20043;-85
2022/10/05 04:12:39;;;;;;;10.88;9.50;;;;;;;13.58;100.00;101548.19;5343685;27;20393;-85
2022/10/05 04:15:32;;;;;;;13.20;9.82;;;;;;;13.52;100.00;101538.06;5328104;27;20034;-86
2022/10/05 04:18:17;;;;;;;13.95;9.95;;;;;;;13.42;100.00;101528.19;5320106;27;20068;-86
2022/10/05 04:20:51;;;;;;;11.65;9.40;;;;;;;13.52;100.00;101552.31;5342985;27;20016;-86
2022/10/05 04:23:44;;;;;;;13.90;10.05;;;;;;;13.47;100.00;101524.25;5324084;27;20113;-85
2022/10/05 04:26:23;;;;;;;12.23;10.15;;;;;;;13.40;100.00;101526.66;5343438;27;20028;-86
2022/10/05 04:29:13;;;;;;;14.70;9.93;;;;;;;13.51;100.00;101542.56;5325190;27;20063;-86
2022/10/05 04:32:02;;;;;;;12.52;9.80;;;;;;;13.51;100.00;101539.88;5341394;27;20474;-86
2022/10/05 04:34:41;;;;;;;15.82;10.18;;;;;;;13.45;100.00;101528.91;5342835;27;20061;-86
2022/10/05 04:37:35;;;;;;;11.52;9.15;;;;;;;13.42;100.00;101519.31;5325736;27;25210;-86
2022/10/05 04:40:17;;;;;;;13.65;9.45;;;;;;;13.36;100.00;101510.03;5342416;27;20457;-86
2022/10/05 04:43:14;;;;;;;12.48;9.02;;;;;;;13.52;100.00;101530.03;5325807;27;20030;-86
2022/10/05 04:46:15;;;;;;;14.55;9.98;;;;;;;13.49;100.00;101520.44;5340200;27;20059;-86
2022/10/05 04:49:30;;;;;;;11.80;8.52;;;;;;;13.57;100.00;101525.94;5287883;27;20035;-86
2022/10/05 04:52:13;;;;;;;10.15;8.07;;;;;;;13.54;100.00;101514.66;5341045;27;20027;-87
2022/10/05 04:55:11;;;;;;;10.68;7.20;;;;;;;13.64;100.00;101519.97;5329100;27;20476;-87
2022/10/05 04:57:54;;;;;;;7.35;6.65;;;;;;;13.68;100.00;101522.22;5344594;27;20055;-87
2022/10/05 05:00:44;;;;;;;11.18;7.53;;;;;;;13.63;100.00;101505.72;5350920;27;20027;-87
2022/10/05 05:03:18;;;;;;;8.73;7.18;;;;;;;13.73;100.00;101508.38;5347674;27;20050;-87
2022/10/05 05:06:10;;;;;;;9.13;7.20;;;;;;;13.73;100.00;101513.75;5349228;27;20039;-86
2022/10/05 05:09:03;;;;;;;8.60;6.70;;;;;;;13.74;100.00;101508.22;5347618;27;20477;-86
2022/10/05 05:12:08;;;;;;;10.48;6.43;;;;;;;13.73;100.00;101509.22;5342443;27;20505;-86
2022/10/05 05:14:45;;;;;;;9.52;6.32;;;;;;;13.71;100.00;101515.72;5326968;27;20381;-87
2022/10/05 05:17:39;;;;;;;13.68;6.75;;;;;;;13.60;100.00;101490.78;5347368;27;20030;-87
2022/10/05 05:20:40;;;;;;;8.18;6.10;;;;;;;13.60;100.00;101489.94;5342389;27;20494;-87
2022/10/05 05:23:19;;;;;;;9.95;7.00;;;;;;;13.60;100.00;101497.97;5346314;27;20028;-86
2022/10/05 05:26:08;;;;;;;9.20;6.85;;;;;;;13.66;100.00;101509.97;5346101;27;20043;-86
2022/10/05 05:28:52;;;;;;;8.30;7.10;;;;;;;13.65;100.00;101509.09;5328019;27;20031;-86
2022/10/05 05:31:47;;;;;;;9.23;6.60;;;;;;;13.66;100.00;101508.13;5347008;27;20020;-86
2022/10/05 05:34:24;;;;;;;11.05;6.57;;;;;;;13.64;100.00;101506.56;5326154;27;20043;-85
2022/10/05 05:37:27;;;;;;;7.95;7.15;;;;;;;13.49;100.00;101484.75;5339994;27;20032;-85
2022/10/05 05:40:22;;;;;;;7.50;6.63;;;;;;;13.53;100.00;101480.78;5317622;27;20074;-84
2022/10/05 05:42:59;;;;;;;6.75;6.15;;;;;;;13.52;100.00;101485.31;5340273;27;20035;-85
2022/10/05 05:45:41;;;;;;;9.98;6.72;;;;;;;13.60;100.00;101489.94;5338428;27;20470;-86
2022/10/05 05:48:31;;;;;;;8.88;6.43;;;;;;;13.62;100.00;101493.31;5338107;27;20028;-86
2022/10/05 05:51:09;;;;;;;9.18;6.00;;;;;;;13.58;100.00;101486.56;5341061;27;20580;-85
2022/10/05 05:53:43;;;;;;;8.95;6.63;;;;;;;13.40;100.00;101460.53;5339923;27;20510;-85
2022/10/05 05:56:20;;;;;;;6.68;5.75;;;;;;;13.58;100.00;101483.88;5326495;27;20032;-86
2022/10/05 05:59:16;;;;;;;9.88;6.03;;;;;;;13.61;100.00;101481.75;5321058;27;20035;-86
2022/10/05 06:01:52;;;;;;;7.75;6.00;;;;;;;13.62;100.00;101487.94;5321184;27;20506;-86
2022/10/05 06:04:31;;;;;;;9.73;6.03;;;;;;;13.70;100.00;101481.88;5336109;27;20107;-86
2022/10/05 06:07:04;;;;;;;7.65;6.40;;;;;;;13.52;100.00;101463.03;5339235;27;20073;-87
2022/10/05 06:09:42;;;;;;;7.75;5.13;;;;;;;13.54;100.00;101451.16;5319195;27;20044;-86
2022/10/05 06:12:20;;;;;;;8.27;5.18;;;;;;;13.75;100.00;101475.06;5340596;27;20038;-86
2022/10/05 06:14:57;;;;;;;9.38;4.88;;;;;;;13.78;100.00;101482.81;5321186;27;20032;-86
2022/10/05 06:17:38;;;;;;;6.10;5.40;;;;;;;13.84;100.00;101488.59;5345484;27;20106;-87
2022/10/05 06:20:30;;;;;;;5.82;4.38;;;;;;;13.81;100.00;101470.94;5342308;27;20039;-87
2022/10/05 06:23:08;;;;;;;4.82;4.35;;;;;;;13.93;100.00;101479.63;5320350;27;20028;-87
2022/10/05 06:26:12;;;;;;;6.35;5.25;;;;;;;13.84;100.00;101464.44;5336002;27;20020;-87
2022/10/05 06:28:50;;;;;;;8.23;4.40;;;;;;;13.96;100.00;101480.19;5339680;27;20462;-88
2022/10/05 06:31:28;;;;;;;6.85;4.82;;;;;;;13.98;100.00;101485.41;5338167;27;20065;-87
2022/10/05 06:34:31;;;;;;;6.55;4.78;;;;;;;13.88;100.00;101455.94;5321225;27;20030;-87
2022/10/05 06:37:12;;;;;;;5.93;4.82;;;;;;;13.89;100.00;101467.53;5325937;27;20032;-88
2022/10/05 06:40:08;;;;;;;5.03;4.50;;;;;;;13.94;100.00;101479.50;5340920;27;20142;-87
2022/10/05 06:42:54;;;;;;;5.43;4.82;;;;;;;13.93;100.00;101480.47;5343729;27;20027;-87
2022/10/05 06:45:34;;;;;;;8.43;5.57;;;;;;;13.92;100.00;101480.63;5347413;27;20108;-87
2022/10/05 06:48:21;;;;;;;6.32;5.05;;;;;;;13.87;100.00;101472.19;5361280;27;20036;-87
2022/10/05 06:51:03;;;;;;;8.50;5.00;;;;;;;13.96;100.00;101474.81;5357681;27;20059;-88
2022/10/05 06:54:18;;;;;;;6.70;5.35;;;;;;;13.94;100.00;101470.63;5354494;27;20031;-88
2022/10/05 06:57:38;;;;;;;5.88;4.97;;;;;;;14.07;100.00;101486.34;5326333;27;20036;-88
2022/10/05 07:00:18;;;;;;;5.93;4.50;;;;;;;14.11;100.00;101485.91;5344338;27;20036;-88
2022/10/05 07:03:02;;;;;;;9.23;4.55;;;;;;;14.12;100.00;101484.88;5343098;27;20016;-87
2022/10/05 07:05:46;;;;;;;7.93;5.22;;;;;;;14.18;100.00;101496.84;5323675;27;20089;-87
2022/10/05 07:08:27;;;;;;;6.47;4.72;;;;;;;14.24;100.00;101493.59;5324857;27;20099;-87
2022/10/05 07:11:23;;;;;;;6.88;5.32;;;;;;;14.31;100.00;101494.66;5291300;28;20049;-87
2022/10/05 07:14:13;;;;;;;5.50;4.93;;;;;;;14.31;100.00;101485.78;5291769;28;20040;-87
2022/10/05 07:17:10;;;;;;;7.88;5.35;;;;;;;14.38;100.00;101486.88;5295343;28;20520;-88
2022/10/05 07:20:02;;;;;;;9.02;4.82;;;;;;;14.44;100.00;101493.47;5291397;28;20079;-87
2022/10/05 07:23:03;;;;;;;6.70;5.00;;;;;;;14.47;100.00;101499.38;5287234;28;20037;-87
2022/10/05 07:26:14;;;;;;;6.95;4.95;;;;;;;14.56;100.00;101481.50;5287697;28;20025;-88
2022/10/05 07:28:52;;;;;;;7.88;5.30;;;;;;;14.60;100.00;101492.81;5301672;28;20037;-87
2022/10/05 07:31:39;;;;;;;7.10;5.00;;;;;;;14.63;100.00;101489.81;5299184;28;20029;-88
2022/10/05 07:34:25;;;;;;;8.50;4.93;;;;;;;14.72;100.00;101489.72;5290742;28;20033;-87
2022/10/05 07:40:12;;;;;;;6.75;4.85;;;;;;;14.74;100.00;101481.53;5289780;28;20037;-87
2022/10/05 07:42:56;;;;;;;8.63;4.65;;;;;;;14.87;100.00;101491.91;5289787;28;20116;-88
2022/10/05 07:45:45;;;;;;;7.18;4.53;;;;;;;14.93;100.00;101488.56;5294330;28;20031;-88
2022/10/05 07:48:25;;;;;;;5.47;4.38;;;;;;;14.86;100.00;101479.44;5306937;28;20483;-88
2022/10/05 07:51:07;;;;;;;5.97;4.50;;;;;;;14.99;100.00;101492.47;5287592;28;20505;-82
2022/10/05 07:53:44;;;;;;;8.18;4.55;;;;;;;14.91;100.00;101475.28;5312990;28;20020;-83
2022/10/05 07:56:28;;;;;;;7.30;4.57;;;;;;;15.08;100.00;101489.72;5286846;28;20073;-83
2022/10/05 07:59:06;;;;;;;4.57;3.97;;;;;;;15.09;100.00;101502.16;5289666;28;20739;-82
2022/10/05 08:01:47;;;;;;;8.60;4.20;;;;;;;15.12;100.00;101488.38;5296389;27;20039;-83
2022/10/05 08:04:54;;;;;;;5.57;4.05;;;;;;;15.17;100.00;101492.47;5305707;28;20398;-82
2022/10/05 08:07:28;;;;;;;6.43;4.15;;;;;;;15.27;100.00;101483.31;5298778;28;20458;-82
2022/10/05 08:10:18;;;;;;;6.18;3.80;;;;;;;15.31;100.00;101484.66;5309806;28;20036;-83
2022/10/05 08:13:04;;;;;;;11.93;4.57;;;;;;;15.43;100.00;101487.09;5320804;28;20090;-82
2022/10/05 08:15:44;;;;;;;7.72;4.10;;;;;;;15.58;100.00;101490.03;5323149;27;20478;-83
2022/10/05 08:18:56;;;;;;;6.10;4.00;;;;;;;15.70;100.00;101484.19;5317775;28;20024;-83
2022/10/05 08:21:54;;;;;;;4.57;3.42;;;;;;;15.85;100.00;101478.28;5324670;28;20021;-83
2022/10/05 08:24:45;;;;;;;6.20;4.28;;;;;;;15.91;100.00;101472.22;5321454;28;20043;-83
2022/10/05 08:27:20;;;;;;;5.93;3.63;;;;;;;15.95;100.00;101475.44;5326535;27;20370;-83
2022/10/05 08:29:58;;;;;;;6.45;4.47;;;;;;;15.91;100.00;101460.63;5325257;27;20113;-82
2022/10/05 08:32:37;;;;;;;5.45;3.60;;;;;;;16.02;100.00;101461.19;5326452;28;20089;-83
2022/10/05 08:35:32;;;;;;;5.25;3.30;;;;;;;16.22;100.00;101466.28;5326754;27;20290;-83
2022/10/05 08:38:11;;;;;;;6.78;4.20;;;;;;;16.20;100.00;101462.94;5324639;28;20067;-83
2022/10/05 08:40:54;;;;;;;7.80;3.50;;;;;;;16.22;100.00;101455.53;5326823;27;20031;-83
2022/10/05 08:43:45;;;;;;;5.28;3.78;;;;;;;16.34;100.00;101466.78;5326059;27;20428;-83
2022/10/05 08:46:34;;;;;;;7.30;3.55;;;;;;;16.44;100.00;101457.59;5326023;28;20040;-83
2022/10/05 08:49:08;;;;;;;6.13;3.42;;;;;;;16.42;100.00;101461.44;5324727;28;20035;-83
2022/10/05 08:52:01;;;;;;;4.53;3.28;;;;;;;16.45;100.00;101461.13;5326203;27;20032;-83
2022/10/05 08:55:08;;;;;;;5.05;3.22;;;;;;;16.50;100.00;101461.47;5320861;27;20039;-83
2022/10/05 08:57:52;;;;;;;7.28;3.97;;;;;;;16.54;100.00;101456.59;5320881;28;20032;-83
2022/10/05 09:00:46;;;;;;;6.18;3.25;;;;;;;16.50;100.00;101447.16;5323562;27;20466;-83
2022/10/05 09:03:48;;;;;;;6.22;3.03;;;;;;;16.64;100.00;101450.03;5325589;27;20035;-83
2022/10/05 09:06:27;;;;;;;4.45;3.22;;;;;;;16.77;100.00;101438.72;5317215;27;20028;-83
2022/10/05 09:09:13;;;;;;;4.32;3.15;;;;;;;16.92;100.00;101446.19;5323414;27;20123;-83
2022/10/05 09:11:56;;;;;;;4.53;3.20;;;;;;;17.11;100.00;101439.56;5346199;27;20050;-83
2022/10/05 09:14:58;;;;;;;4.32;2.97;;;;;;;17.20;100.00;101435.88;5345958;27;20031;-82
2022/10/05 09:18:03;;;;;;;4.93;3.30;;;;;;;17.15;100.00;101436.38;5341582;27;20106;-83
2022/10/05 09:20:48;;;;;;;8.45;3.03;;;;;;;17.18;100.00;101425.25;5324112;27;20024;-83
2022/10/05 09:23:41;;;;;;;4.85;2.50;;;;;;;17.33;100.00;101444.25;5345374;27;20032;-83
2022/10/05 09:26:50;;;;;;;4.88;2.60;;;;;;;17.41;100.00;101434.44;5347350;27;20473;-83
2022/10/05 09:29:52;;;;;;;3.05;2.75;;;;;;;17.54;100.00;101432.91;5324129;27;20123;-83
2022/10/05 09:32:42;;;;;;;5.60;2.50;;;;;;;17.61;100.00;101433.03;5345211;27;20023;-83
2022/10/05 09:35:51;;;;;;;4.82;2.67;;;;;;;17.69;100.00;101432.16;5321169;27;20035;-82
2022/10/05 09:38:49;;;;;;;6.68;2.75;;;;;;;17.71;100.00;101422.91;5345671;27;20028;-82
2022/10/05 09:41:26;;;;;;;5.05;2.55;;;;;;;17.50;100.00;101428.88;5348560;27;20027;-82
2022/10/05 09:44:32;;;;;;;8.52;2.80;;;;;;;17.44;100.00;101431.41;5346471;27;20070;-83
2022/10/05 09:47:36;;;;;;;5.03;2.80;;;;;;;17.43;100.00;101416.28;5344772;27;20032;-83
2022/10/05 09:50:41;;;;;;;5.22;3.10;;;;;;;17.28;100.00;101424.22;5307574;27;20051;-83
2022/10/05 09:53:31;;;;;;;5.05;2.75;;;;;;;17.50;100.00;101428.03;5345183;27;20028;-83
2022/10/05 09:56:40;;;;;;;4.82;2.60;;;;;;;17.83;100.00;101415.25;5338795;27;20064;-83
2022/10/05 09:59:36;;;;;;;7.43;2.78;;;;;;;17.99;100.00;101413.50;5342999;27;20027;-83
2022/10/05 10:02:17;;;;;;;3.30;2.45;;;;;;;18.14;100.00;101399.09;5322737;27;20028;-82
2022/10/05 10:05:10;;;;;;;6.32;2.95;;;;;;;18.27;100.00;101408.44;5346224;27;20034;-83
2022/10/05 10:07:59;;;;;;;7.82;3.10;;;;;;;18.24;100.00;101392.59;5340826;27;20095;-83
2022/10/05 10:10:55;;;;;;;3.95;2.75;;;;;;;18.18;100.00;101402.28;5346116;27;20374;-83
2022/10/05 10:13:30;;;;;;;4.15;2.80;;;;;;;18.11;100.00;101398.59;5322218;27;20023;-83
2022/10/05 10:16:01;;;;;;;4.88;2.55;;;;;;;18.23;100.00;101396.31;5341817;27;20119;-83
2022/10/05 10:18:35;;;;;;;4.55;2.30;;;;;;;18.63;100.00;101397.84;5324199;27;20350;-83
2022/10/05 10:21:19;;;;;;;5.15;2.58;;;;;;;18.70;100.00;101390.69;5326960;27;20702;-83
2022/10/05 10:23:58;;;;;;;4.43;2.47;;;;;;;19.38;100.00;101388.00;5345465;27;20028;-82
2022/10/05 10:27:04;;;;;;;4.05;2.40;;;;;;;20.28;100.00;101396.78;5343403;27;20327;-83
2022/10/05 10:29:49;;;;;;;9.68;2.47;;;;;;;20.65;100.00;101389.47;5345755;27;20044;-83
2022/10/05 10:32:39;;;;;;;4.60;2.50;;;;;;;20.95;100.00;101384.69;5334397;27;20019;-83
2022/10/05 10:35:35;;;;;;;3.53;2.38;;;;;;;20.89;100.00;101377.31;5326330;27;20035;-83
2022/10/05 10:38:32;;;;;;;4.70;2.58;;;;;;;21.22;100.00;101371.28;5343997;27;20020;-83
2022/10/05 10:41:36;;;;;;;7.82;2.38;;;;;;;21.24;100.00;101354.81;5346029;27;20019;-83
2022/10/05 10:44:32;;;;;;;6.85;2.45;;;;;;;21.73;100.00;101371.97;5324474;27;20473;-83
2022/10/05 10:47:25;;;;;;;2.67;2.07;;;;;;;21.75;100.00;101362.56;5343592;27;20119;-84
2022/10/05 10:50:22;;;;;;;5.22;2.67;;;;;;;21.80;100.00;101356.53;5340132;27;20269;-83
2022/10/05 10:53:12;;;;;;;6.53;2.17;;;;;;;21.11;100.00;101350.97;5342624;27;20030;-83
2022/10/05 10:56:02;;;;;;;5.20;2.10;;;;;;;21.02;100.00;101338.63;5321614;27;20096;-82
2022/10/05 10:58:58;;;;;;;5.47;2.50;;;;;;;21.07;100.00;101359.69;5321943;27;20081;-83
2022/10/05 11:01:57;;;;;;;8.38;2.10;;;;;;;22.01;100.00;101336.53;5341978;27;20370;-83
2022/10/05 11:05:00;;;;;;;6.47;1.90;;;;;;;22.60;100.00;101332.19;5324452;27;20030;-83
2022/10/05 11:07:48;;;;;;;14.30;2.70;;;;;;;22.53;100.00;101332.19;5325175;27;20342;-83
2022/10/05 11:10:27;;;;;;;10.27;2.15;;;;;;;23.09;100.00;101343.63;5343799;27;20052;-84
2022/10/05 11:13:27;;;;;;;3.85;1.85;;;;;;;22.40;100.00;101338.44;5345570;27;20504;-84
2022/10/05 11:16:12;;;;;;;7.75;1.73;;;;;;;21.44;100.00;101342.19;5345579;27;20028;-83
2022/10/05 11:18:56;;;;;;;24.42;2.80;;;;;;;20.85;100.00;101335.38;5344133;27;20366;-83
2022/10/05 11:22:05;;;;;;;7.18;1.85;;;;;;;20.89;100.00;101320.38;5324668;27;20063;-83
2022/10/05 11:24:53;;;;;;;9.32;2.15;;;;;;;21.78;100.00;101331.47;5344998;27;20067;-83
2022/10/05 11:27:46;;;;;;;12.15;1.92;;;;;;;21.92;100.00;101329.63;5345434;27;20488;-83
2022/10/05 11:31:09;;;;;;;10.55;2.20;;;;;;;21.89;100.00;101326.25;5341609;27;20043;-83
2022/10/05 11:34:01;;;;;;;11.00;1.52;;;;;;;22.32;100.00;101313.38;5344354;27;20496;-81
2022/10/05 11:36:54;;;;;;;7.00;1.83;;;;;;;22.31;100.00;101306.28;5344045;27;20412;-83
2022/10/05 11:39:35;;;;;;;6.68;2.08;;;;;;;22.92;100.00;101307.88;5343070;27;20062;-83
2022/10/05 11:42:52;;;;;;;8.18;2.15;;;;;;;22.95;100.00;101294.69;5344059;27;20020;-83
2022/10/05 11:45:59;;;;;;;12.57;2.10;;;;;;;23.51;100.00;101295.09;5329824;27;20102;-83
2022/10/05 11:48:45;;;;;;;5.43;1.50;;;;;;;24.65;100.00;101296.00;5345620;27;20027;-83
2022/10/05 11:51:28;;;;;;;9.50;1.98;;;;;;;24.80;100.00;101279.25;5345610;27;20383;-82
2022/10/05 11:54:08;;;;;;;8.85;1.90;;;;;;;25.18;100.00;101261.00;5329564;27;20477;-81
2022/10/05 11:56:52;;;;;;;9.55;1.98;;;;;;;26.28;100.00;101273.47;5348194;27;20401;-83
2022/10/05 11:59:33;;;;;;;13.45;1.90;;;;;;;26.21;100.00;101270.03;5345262;27;20119;-83
2022/10/05 12:02:26;;;;;;;9.23;1.65;;;;;;;26.92;100.00;101276.28;5324915;27;20035;-82
2022/10/05 12:05:21;;;;;;;5.97;1.40;;;;;;;25.98;100.00;101258.00;5344051;27;20031;-83
2022/10/05 12:08:01;;;;;;;5.53;1.38;;;;;;;26.52;100.00;101255.16;5343790;27;20034;-82
2022/10/05 12:10:51;;;;;;;8.38;1.35;;;;;;;26.35;100.00;101246.84;5341994;27;27883;-83
2022/10/05 12:13:25;;;;;;;4.25;1.30;;;;;;;26.04;100.00;101242.56;5342807;27;20478;-83
2022/10/05 12:16:06;;;;;;;7.60;1.73;;;;;;;27.04;100.00;101231.66;5343745;27;20059;-83
2022/10/05 12:18:47;;;;;;;7.00;1.27;;;;;;;27.57;100.00;101244.19;5343982;27;20034;-82
2022/10/05 12:21:32;;;;;;;10.90;1.58;;;;;;;27.17;100.00;101239.56;5345593;27;20027;-82
2022/10/05 12:24:22;;;;;;;10.38;1.63;;;;;;;25.88;100.00;101233.13;5344670;27;20035;-82
2022/10/05 12:27:15;;;;;;;6.47;1.77;;;;;;;24.34;100.00;101232.28;5345668;27;20558;-82
2022/10/05 12:29:58;;;;;;;8.27;1.20;;;;;;;24.64;100.00;101214.41;5345207;27;20071;-83
2022/10/05 12:32:40;;;;;;;9.27;1.50;;;;;;;26.78;100.00;101215.53;5343909;27;20477;-83
2022/10/05 12:35:43;;;;;;;15.80;1.75;;;;;;;28.01;100.00;101225.22;5341896;27;20030;-83
2022/10/05 12:38:32;;;;;;;11.30;1.55;;;;;;;28.24;100.00;101228.88;5342792;27;20043;-83
2022/10/05 12:41:13;;;;;;;13.18;1.48;;;;;;;28.46;100.00;101217.94;5318605;27;20729;-83
2022/10/05 12:44:02;;;;;;;5.18;1.30;;;;;;;28.04;100.00;101237.63;5340337;27;20028;-83
2022/10/05 12:46:45;;;;;;;20.27;2.50;;;;;;;25.15;100.00;101218.59;5342192;27;20082;-83
2022/10/05 12:49:32;;;;;;;10.13;1.55;;;;;;;23.97;100.00;101224.03;5323336;27;20115;-83
2022/10/05 12:52:07;;;;;;;9.90;1.75;;;;;;;24.50;100.00;101219.97;5343115;27;20093;-83
2022/10/05 12:55:03;;;;;;;;;;;;;;;25.38;100.00;101247.91;5347133;27;20071;-83